Terminal Aerodrome Forecast
Issued by NWS

Home | Current Version | Previous Version | Text Only | Print | Product List | Glossary On
Versions: 1 2 3 4 5 6 7 8 9 10 11 12 13 14 15 16 17 18 19
000
FTUS44 KBMX 300520
TAFTOI
TAF
KTOI 300520Z 3006/3106 00000KT P6SM OVC200
     FM300800 24003KT P6SM VCSH SCT030 OVC100
      TEMPO 3012/3015 5SM BR BKN025 OVC100
     FM301500 28005KT P6SM SCT040 BKN150
     FM302000 26005KT P6SM BKN050 BKN130 PROB30 3020/3024 P6SM -SHRA
      BKN035
     FM310000 00000KT P6SM SCT050 BKN120 PROB30 3100/3104 P6SM -SHRA
      BKN035=

USA.gov is the U.S. government's official web portal to all federal, state and local government web resources and services.